createdAt,value
2023-05-22T00:01:56.532Z,40.70
2023-05-22T00:04:23.405Z,40.63
2023-05-22T00:06:50.449Z,41.55
2023-05-22T00:09:17.215Z,40.22
2023-05-22T00:11:43.888Z,39.33
2023-05-22T00:14:10.627Z,40.00
2023-05-22T00:16:39.478Z,39.13
2023-05-22T00:19:07.130Z,39.10
2023-05-22T00:21:34.681Z,44.78
2023-05-22T00:24:02.035Z,39.25
2023-05-22T00:26:28.740Z,38.80
2023-05-22T00:28:55.690Z,39.35
2023-05-22T00:31:22.795Z,39.42
2023-05-22T00:33:49.609Z,40.08
2023-05-22T00:36:16.354Z,39.85
2023-05-22T00:38:43.058Z,38.95
2023-05-22T00:41:09.719Z,38.20
2023-05-22T00:43:39.333Z,41.28
2023-05-22T00:46:07.656Z,39.50
2023-05-22T00:48:34.540Z,40.75
2023-05-22T00:51:01.736Z,40.08
2023-05-22T00:53:29.908Z,40.15
2023-05-22T00:55:58.538Z,38.88
2023-05-22T00:58:27.389Z,40.42
2023-05-22T01:00:55.245Z,39.00
2023-05-22T01:03:26.285Z,39.08
2023-05-22T01:05:54.355Z,37.30
2023-05-22T01:08:21.487Z,39.45
2023-05-22T01:10:54.618Z,39.28
2023-05-22T01:13:33.673Z,40.08
2023-05-22T01:16:19.674Z,40.03
2023-05-22T01:19:00.758Z,39.58
2023-05-22T01:21:46.898Z,37.15
2023-05-22T01:24:25.495Z,38.47
2023-05-22T01:27:29.855Z,38.63
2023-05-22T01:30:14.016Z,38.00
2023-05-22T01:32:43.650Z,37.78
2023-05-22T01:35:11.638Z,39.50
2023-05-22T01:37:39.114Z,38.90
2023-05-22T01:40:07.549Z,38.05
2023-05-22T01:42:35.247Z,39.85
2023-05-22T01:45:01.971Z,38.60
2023-05-22T01:47:28.881Z,39.00
2023-05-22T01:49:55.771Z,38.80
2023-05-22T01:52:31.932Z,36.20
2023-05-22T01:55:09.616Z,36.75
2023-05-22T01:57:47.841Z,36.78
2023-05-22T02:00:16.494Z,37.42
2023-05-22T02:02:48.057Z,37.13
2023-05-22T02:05:18.770Z,37.60
2023-05-22T02:07:47.581Z,37.92
2023-05-22T02:10:15.566Z,36.92
2023-05-22T02:12:42.891Z,35.15
2023-05-22T02:15:11.385Z,38.15
2023-05-22T02:17:42.511Z,36.97
2023-05-22T02:20:15.281Z,37.30
2023-05-22T02:22:45.301Z,39.57
2023-05-22T02:25:16.865Z,37.22
2023-05-22T02:27:45.893Z,38.22
2023-05-22T02:30:13.582Z,37.63
2023-05-22T02:32:42.250Z,38.78
2023-05-22T02:35:09.725Z,40.38
2023-05-22T02:37:37.102Z,39.63
2023-05-22T02:40:06.195Z,38.75
2023-05-22T02:42:34.419Z,38.17
2023-05-22T02:45:02.066Z,38.05
2023-05-22T02:47:28.847Z,38.33
2023-05-22T02:49:57.751Z,37.85
2023-05-22T02:52:24.879Z,36.00
2023-05-22T02:54:51.667Z,36.60
2023-05-22T02:57:19.251Z,37.47
2023-05-22T02:59:46.067Z,34.65
2023-05-22T03:02:15.252Z,35.83
2023-05-22T03:04:41.994Z,36.15
2023-05-22T03:07:09.342Z,36.30
2023-05-22T03:09:36.328Z,36.47
2023-05-22T03:12:03.375Z,35.97
2023-05-22T03:14:30.288Z,36.60
2023-05-22T03:17:02.411Z,36.17
2023-05-22T03:19:29.546Z,36.65
2023-05-22T03:21:56.370Z,34.47
2023-05-22T03:24:23.123Z,39.22
2023-05-22T03:26:50.108Z,38.25
2023-05-22T03:29:23.890Z,36.50
2023-05-22T03:31:50.683Z,37.55
2023-05-22T03:34:17.385Z,35.83
2023-05-22T03:36:46.499Z,36.28
2023-05-22T03:39:15.624Z,35.05
2023-05-22T03:41:51.171Z,36.55
2023-05-22T03:44:18.489Z,36.80
2023-05-22T03:46:46.237Z,35.42
2023-05-22T03:49:12.886Z,36.70
2023-05-22T03:51:39.543Z,36.95
2023-05-22T03:54:06.216Z,34.22
2023-05-22T03:56:32.905Z,40.70
2023-05-22T03:58:59.630Z,39.00
2023-05-22T04:01:27.240Z,40.42
2023-05-22T04:03:53.876Z,41.45
2023-05-22T04:06:23.454Z,41.08
2023-05-22T04:08:50.102Z,42.28
2023-05-22T04:11:17.008Z,40.85
2023-05-22T04:13:44.837Z,41.67
2023-05-22T04:16:11.549Z,42.13
2023-05-22T04:18:38.378Z,40.92
2023-05-22T04:21:07.976Z,38.83
2023-05-22T04:23:34.896Z,39.10
2023-05-22T04:26:04.347Z,39.05
2023-05-22T04:28:30.988Z,40.33
2023-05-22T04:30:57.795Z,39.22
2023-05-22T04:33:24.615Z,41.00
2023-05-22T04:35:51.835Z,39.40
2023-05-22T04:38:18.791Z,40.00
2023-05-22T04:40:45.644Z,39.33
2023-05-22T04:43:13.668Z,40.67
2023-05-22T04:45:42.156Z,38.75
2023-05-22T04:48:09.117Z,40.13
2023-05-22T04:50:38.589Z,39.15
2023-05-22T04:53:05.935Z,37.95
2023-05-22T04:55:35.575Z,38.97
2023-05-22T04:58:02.682Z,38.58
2023-05-22T05:00:29.473Z,39.08
2023-05-22T05:02:57.969Z,40.25
2023-05-22T05:05:25.547Z,40.20
2023-05-22T05:07:53.717Z,38.85
2023-05-22T05:10:20.722Z,39.65
2023-05-22T05:12:47.359Z,39.95
2023-05-22T05:15:14.146Z,40.35
2023-05-22T05:17:41.056Z,38.35
2023-05-22T05:20:08.435Z,41.08
2023-05-22T05:22:35.827Z,38.22
2023-05-22T05:25:05.394Z,39.63
2023-05-22T05:27:32.224Z,38.92
2023-05-22T05:29:59.233Z,39.28
2023-05-22T05:32:32.945Z,39.58
2023-05-22T05:35:08.118Z,39.92
2023-05-22T05:37:51.586Z,40.53
2023-05-22T05:40:18.397Z,38.58
2023-05-22T05:42:49.652Z,39.53
2023-05-22T05:45:18.743Z,40.03
2023-05-22T05:47:45.832Z,39.28
2023-05-22T05:50:15.424Z,39.58
2023-05-22T05:52:42.760Z,39.88
2023-05-22T05:55:14.130Z,39.25
2023-05-22T05:57:41.458Z,38.60
2023-05-22T06:00:12.545Z,39.22
2023-05-22T06:02:42.863Z,38.70
2023-05-22T06:05:23.780Z,39.05
2023-05-22T06:07:58.754Z,38.85
2023-05-22T06:10:25.488Z,39.38
2023-05-22T06:12:59.021Z,39.65
2023-05-22T06:15:25.697Z,39.58
2023-05-22T06:17:52.552Z,40.05
2023-05-22T06:20:19.897Z,38.63
2023-05-22T06:22:47.205Z,39.85
2023-05-22T06:25:13.993Z,37.55
2023-05-22T06:27:40.847Z,38.60
2023-05-22T06:30:08.622Z,39.70
2023-05-22T06:32:38.954Z,37.42
2023-05-22T06:35:07.186Z,41.50
2023-05-22T06:37:35.581Z,40.70
2023-05-22T06:40:03.449Z,39.60
2023-05-22T06:42:40.629Z,40.25
2023-05-22T06:45:25.725Z,42.85
2023-05-22T06:48:12.956Z,42.50
2023-05-22T06:50:52.917Z,40.85
2023-05-22T06:53:20.163Z,41.78
2023-05-22T06:55:47.757Z,40.25
2023-05-22T06:58:22.199Z,40.65
2023-05-22T07:00:50.437Z,41.25
2023-05-22T07:03:22.926Z,40.85
2023-05-22T07:06:16.181Z,41.28
2023-05-22T07:08:43.106Z,41.72
2023-05-22T07:11:09.789Z,41.08
2023-05-22T07:13:36.588Z,41.00
2023-05-22T07:16:06.277Z,40.97
2023-05-22T07:18:34.220Z,42.10
2023-05-22T07:21:01.495Z,42.03
2023-05-22T07:23:28.734Z,41.60
2023-05-22T07:25:55.522Z,40.80
2023-05-22T07:28:26.507Z,43.70
2023-05-22T07:33:27.665Z,41.53
2023-05-22T07:35:55.535Z,41.13
2023-05-22T07:38:22.621Z,41.13
2023-05-22T07:40:56.744Z,40.72
2023-05-22T07:43:24.671Z,41.65
2023-05-22T07:45:53.882Z,40.70
2023-05-22T07:48:25.006Z,39.92
2023-05-22T07:50:51.811Z,41.70
2023-05-22T07:53:18.670Z,42.33
2023-05-22T07:55:49.109Z,41.80
2023-05-22T07:58:15.994Z,42.38
2023-05-22T08:00:44.388Z,42.53
2023-05-22T08:03:12.332Z,41.88
2023-05-22T08:05:39.293Z,41.17
2023-05-22T08:08:06.115Z,41.03
2023-05-22T08:10:52.127Z,41.17
2023-05-22T08:13:22.643Z,43.60
2023-05-22T08:15:49.370Z,40.40
2023-05-22T08:18:16.253Z,40.92
2023-05-22T08:20:42.970Z,41.97
2023-05-22T08:23:09.682Z,43.38
2023-05-22T08:25:37.076Z,43.97
2023-05-22T08:28:04.093Z,43.83
2023-05-22T08:30:31.046Z,43.67
2023-05-22T08:32:57.753Z,42.45
2023-05-22T08:35:24.476Z,42.92
2023-05-22T08:37:51.647Z,41.63
2023-05-22T08:40:20.338Z,40.78
2023-05-22T08:42:47.952Z,41.58
2023-05-22T08:45:16.124Z,41.55
2023-05-22T08:47:44.224Z,40.72
2023-05-22T08:50:12.153Z,41.15
2023-05-22T08:52:51.518Z,43.83
2023-05-22T08:55:19.398Z,42.95
2023-05-22T08:57:46.832Z,41.33
2023-05-22T09:00:14.141Z,43.17
2023-05-22T09:02:41.656Z,43.53
2023-05-22T09:05:09.704Z,41.38
2023-05-22T09:07:37.936Z,45.45
2023-05-22T09:10:06.976Z,43.35
2023-05-22T09:12:33.907Z,42.70
2023-05-22T09:15:10.165Z,42.92
2023-05-22T09:17:41.021Z,46.28
2023-05-22T09:20:10.367Z,44.55
2023-05-22T09:22:38.267Z,45.88
2023-05-22T09:25:06.834Z,47.22
2023-05-22T09:27:34.122Z,46.20
2023-05-22T09:30:01.063Z,48.28
2023-05-22T09:32:31.393Z,49.25
2023-05-22T09:35:05.282Z,47.47
2023-05-22T09:37:36.465Z,45.45
2023-05-22T09:40:11.135Z,45.58
2023-05-22T09:42:37.849Z,45.60
2023-05-22T09:45:11.366Z,45.47
2023-05-22T09:47:46.017Z,44.08
2023-05-22T09:52:39.476Z,42.42
2023-05-22T09:55:08.576Z,41.55
2023-05-22T09:57:48.173Z,42.35
2023-05-22T10:00:17.913Z,43.65
2023-05-22T10:02:58.445Z,46.67
2023-05-22T10:05:33.864Z,50.03
2023-05-22T10:08:13.984Z,49.35
2023-05-22T10:10:43.571Z,48.88
2023-05-22T10:13:13.328Z,48.53
2023-05-22T10:15:41.053Z,50.17
2023-05-22T10:18:08.116Z,50.53
2023-05-22T10:20:35.629Z,56.40
2023-05-22T10:23:03.896Z,56.60
2023-05-22T10:25:30.722Z,57.78
2023-05-22T10:27:58.868Z,51.55
2023-05-22T10:30:34.646Z,51.97
2023-05-22T10:33:22.388Z,52.63
2023-05-22T10:35:59.034Z,52.97
2023-05-22T10:38:35.866Z,51.60
2023-05-22T10:41:06.710Z,50.42
2023-05-22T10:43:38.414Z,50.63
2023-05-22T10:46:07.130Z,51.10
2023-05-22T10:48:45.335Z,51.92
2023-05-22T10:51:22.319Z,51.53
2023-05-22T10:54:00.794Z,48.33
2023-05-22T10:56:34.792Z,52.00
2023-05-22T10:59:07.916Z,52.10
2023-05-22T11:01:39.642Z,51.88
2023-05-22T11:04:18.965Z,49.50
2023-05-22T11:07:08.502Z,51.33
2023-05-22T11:09:45.894Z,49.95
2023-05-22T11:12:19.220Z,49.85
2023-05-22T11:15:03.207Z,47.58
2023-05-22T11:17:31.092Z,51.38
2023-05-22T11:20:01.062Z,50.80
2023-05-22T11:22:39.697Z,52.58
2023-05-22T11:25:11.428Z,56.25
2023-05-22T11:27:40.540Z,53.90
2023-05-22T11:30:09.084Z,53.97
2023-05-22T11:32:40.461Z,54.88
2023-05-22T11:35:10.845Z,55.42
2023-05-22T11:37:41.538Z,56.05
2023-05-22T11:40:09.641Z,54.20
2023-05-22T11:42:37.591Z,55.08
2023-05-22T11:45:05.340Z,54.92
2023-05-22T11:47:32.312Z,57.92
2023-05-22T11:50:02.874Z,55.75
2023-05-22T11:52:34.033Z,50.80
2023-05-22T11:55:01.178Z,54.03
2023-05-22T11:57:28.320Z,56.67
2023-05-22T11:59:55.060Z,54.20
2023-05-22T12:02:21.874Z,57.95
2023-05-22T12:04:53.477Z,57.35
2023-05-22T12:07:21.537Z,58.03
2023-05-22T12:09:48.945Z,60.97
2023-05-22T12:12:16.300Z,59.80
2023-05-22T12:14:46.601Z,57.47
2023-05-22T12:17:14.321Z,58.55
2023-05-22T12:19:42.125Z,58.70
2023-05-22T12:22:10.165Z,56.95
2023-05-22T12:24:41.760Z,58.08
2023-05-22T12:27:12.740Z,56.42
2023-05-22T12:29:40.101Z,54.50
2023-05-22T12:32:12.174Z,57.08
2023-05-22T12:34:46.904Z,55.75
2023-05-22T12:39:59.470Z,58.42
2023-05-22T12:42:26.890Z,59.55
2023-05-22T12:44:55.115Z,59.30
2023-05-22T12:47:22.985Z,59.47
2023-05-22T12:49:50.008Z,60.60
2023-05-22T12:52:16.750Z,58.63
2023-05-22T12:54:43.472Z,56.75
2023-05-22T12:57:10.307Z,54.13
2023-05-22T12:59:37.252Z,55.80
2023-05-22T13:02:07.267Z,54.25
2023-05-22T13:04:34.099Z,57.25
2023-05-22T13:07:01.025Z,55.20
2023-05-22T13:09:27.832Z,56.38
2023-05-22T13:11:55.359Z,55.35
2023-05-22T13:14:22.087Z,54.97
2023-05-22T13:16:48.765Z,56.47
2023-05-22T13:19:15.516Z,55.45
2023-05-22T13:21:43.308Z,53.33
2023-05-22T13:24:10.000Z,52.53
2023-05-22T13:26:36.658Z,54.83
2023-05-22T13:29:04.212Z,55.15
2023-05-22T13:31:33.249Z,54.70
2023-05-22T13:34:02.928Z,54.40
2023-05-22T13:36:30.037Z,49.85
2023-05-22T13:38:56.857Z,53.50
2023-05-22T13:41:23.973Z,55.90
2023-05-22T13:43:50.641Z,57.80
2023-05-22T13:46:18.077Z,53.83
2023-05-22T13:48:44.773Z,54.70
2023-05-22T13:51:11.445Z,57.70
2023-05-22T13:53:38.438Z,57.65
2023-05-22T13:56:05.245Z,57.83
2023-05-22T13:58:31.896Z,56.80
2023-05-22T14:00:58.861Z,57.80
2023-05-22T14:03:25.667Z,56.38
2023-05-22T14:05:52.386Z,62.22
2023-05-22T14:08:19.102Z,62.83
2023-05-22T14:10:45.993Z,64.53
2023-05-22T14:13:12.684Z,61.38
2023-05-22T14:15:39.881Z,58.47
2023-05-22T14:18:06.724Z,59.85
2023-05-22T14:20:33.596Z,62.17
2023-05-22T14:23:00.342Z,58.78
2023-05-22T14:25:27.023Z,57.58
2023-05-22T14:27:53.688Z,59.97
2023-05-22T14:30:20.350Z,61.95
2023-05-22T14:32:47.430Z,61.65
2023-05-22T14:35:14.285Z,59.88
2023-05-22T14:37:40.925Z,59.28
2023-05-22T14:40:08.370Z,60.22
2023-05-22T14:42:36.157Z,58.05
2023-05-22T14:45:04.079Z,57.00
2023-05-22T14:47:30.893Z,54.20
2023-05-22T14:50:03.117Z,53.38
2023-05-22T14:52:41.197Z,54.42
2023-05-22T14:55:08.289Z,51.35
2023-05-22T14:57:34.937Z,51.42
2023-05-22T15:00:01.751Z,50.75
2023-05-22T15:02:28.810Z,51.38
2023-05-22T15:04:55.909Z,52.08
2023-05-22T15:07:26.671Z,52.38
2023-05-22T15:09:59.431Z,52.85
2023-05-22T15:12:26.076Z,56.78
2023-05-22T15:14:52.718Z,55.22
2023-05-22T15:17:19.422Z,55.45
2023-05-22T15:19:48.601Z,55.42
2023-05-22T15:22:19.207Z,55.05
2023-05-22T15:25:06.231Z,53.92
2023-05-22T15:27:34.860Z,53.80
2023-05-22T15:30:02.903Z,51.22
2023-05-22T15:32:32.282Z,48.28
2023-05-22T15:34:58.980Z,48.30
2023-05-22T15:37:25.739Z,47.28
2023-05-22T15:39:52.385Z,45.65
2023-05-22T15:42:19.131Z,44.83
2023-05-22T15:44:45.836Z,45.78
2023-05-22T15:47:12.506Z,45.78
2023-05-22T15:49:39.147Z,47.35
2023-05-22T15:52:06.159Z,45.95
2023-05-22T15:54:32.847Z,45.83
2023-05-22T15:56:59.526Z,44.50
2023-05-22T15:59:26.447Z,47.30
2023-05-22T16:01:53.166Z,46.20
2023-05-22T16:04:19.857Z,43.25
2023-05-22T16:06:46.539Z,43.67
2023-05-22T16:09:13.237Z,39.90
2023-05-22T16:11:39.961Z,39.88
2023-05-22T16:14:06.740Z,39.58
2023-05-22T16:16:33.969Z,36.78
2023-05-22T16:19:00.777Z,35.28
2023-05-22T16:21:27.468Z,35.85
2023-05-22T16:23:54.315Z,35.88
2023-05-22T16:26:21.731Z,36.75
2023-05-22T16:28:48.386Z,35.85
2023-05-22T16:31:18.985Z,33.63
2023-05-22T16:33:46.089Z,32.92
2023-05-22T16:36:12.924Z,34.35
2023-05-22T16:38:39.595Z,35.35
2023-05-22T16:41:06.303Z,34.85
2023-05-22T16:43:33.118Z,36.53
2023-05-22T16:45:59.948Z,38.45
2023-05-22T16:48:26.823Z,38.35
2023-05-22T16:50:54.077Z,36.88
2023-05-22T16:53:20.828Z,37.78
2023-05-22T16:55:47.683Z,36.65
2023-05-22T16:58:14.462Z,37.45
2023-05-22T17:00:41.706Z,36.63
2023-05-22T17:03:09.568Z,37.65
2023-05-22T17:05:43.137Z,36.65
2023-05-22T17:08:13.251Z,36.60
2023-05-22T17:10:43.129Z,37.35
2023-05-22T17:13:11.949Z,36.40
2023-05-22T17:15:38.922Z,37.85
2023-05-22T17:18:05.873Z,37.15
2023-05-22T17:20:32.774Z,36.17
2023-05-22T17:22:59.568Z,37.63
2023-05-22T17:25:26.234Z,34.38
2023-05-22T17:27:52.879Z,36.25
2023-05-22T17:30:19.545Z,37.38
2023-05-22T17:32:46.480Z,37.47
2023-05-22T17:35:13.454Z,38.85
2023-05-22T17:37:40.403Z,39.20
2023-05-22T17:40:08.067Z,39.70
2023-05-22T17:42:34.788Z,37.38
2023-05-22T17:45:01.575Z,39.15
2023-05-22T17:47:28.298Z,37.45
2023-05-22T17:49:55.252Z,38.05
2023-05-22T17:52:22.365Z,39.55
2023-05-22T17:54:49.891Z,39.70
2023-05-22T17:57:16.632Z,38.20
2023-05-22T17:59:44.033Z,40.58
2023-05-22T18:02:11.167Z,41.15
2023-05-22T18:04:38.116Z,39.53
2023-05-22T18:07:05.224Z,38.80
2023-05-22T18:09:32.559Z,40.33
2023-05-22T18:12:01.750Z,42.33
2023-05-22T18:14:28.572Z,36.75
2023-05-22T18:16:55.373Z,34.10
2023-05-22T18:19:22.252Z,36.72
2023-05-22T18:21:49.088Z,34.58
2023-05-22T18:24:15.787Z,34.75
2023-05-22T18:26:42.513Z,39.75
2023-05-22T18:29:10.282Z,38.13
2023-05-22T18:31:36.999Z,38.80
2023-05-22T18:34:03.892Z,33.40
2023-05-22T18:36:31.593Z,32.72
2023-05-22T18:38:58.603Z,30.98
2023-05-22T18:41:26.092Z,31.83
2023-05-22T18:43:52.730Z,31.10
2023-05-22T18:46:19.402Z,29.63
2023-05-22T18:48:46.241Z,25.85
2023-05-22T18:51:13.438Z,25.65
2023-05-22T18:53:40.414Z,26.00
2023-05-22T18:56:07.068Z,27.25
2023-05-22T18:58:33.748Z,25.80
2023-05-22T19:01:01.593Z,26.00
2023-05-22T19:03:28.490Z,27.90
2023-05-22T19:05:55.313Z,27.65
2023-05-22T19:08:24.718Z,29.65
2023-05-22T19:10:51.590Z,27.05
2023-05-22T19:13:18.526Z,27.02
2023-05-22T19:15:46.309Z,28.60
2023-05-22T19:18:13.465Z,28.58
2023-05-22T19:20:40.532Z,29.02
2023-05-22T19:23:09.526Z,30.73
2023-05-22T19:25:36.194Z,28.42
2023-05-22T19:28:03.265Z,28.67
2023-05-22T19:30:30.081Z,30.00
2023-05-22T19:32:59.854Z,28.95
2023-05-22T19:35:26.634Z,27.15
2023-05-22T19:38:00.781Z,31.70
2023-05-22T19:40:27.456Z,31.13
2023-05-22T19:43:02.201Z,30.20
2023-05-22T19:45:29.339Z,28.15
2023-05-22T19:47:56.041Z,27.65
2023-05-22T19:50:22.868Z,25.98
2023-05-22T19:52:49.633Z,27.73
2023-05-22T19:55:16.361Z,25.17
2023-05-22T19:57:44.759Z,27.77
2023-05-22T20:00:12.285Z,31.15
2023-05-22T20:02:39.868Z,29.73
2023-05-22T20:05:12.884Z,32.22
2023-05-22T20:07:40.202Z,37.28
2023-05-22T20:10:10.093Z,37.63
2023-05-22T20:12:37.610Z,34.03
2023-05-22T20:15:06.752Z,33.88
2023-05-22T20:17:34.046Z,38.78
2023-05-22T20:20:00.914Z,38.63
2023-05-22T20:22:27.755Z,40.08
2023-05-22T20:24:54.498Z,37.20
2023-05-22T20:27:21.254Z,41.13
2023-05-22T20:29:50.125Z,37.28
2023-05-22T20:32:16.988Z,39.72
2023-05-22T20:34:45.361Z,43.97
2023-05-22T20:37:13.332Z,42.90
2023-05-22T20:39:42.958Z,42.55
2023-05-22T20:42:11.457Z,41.50
2023-05-22T20:44:38.542Z,49.95
2023-05-22T20:47:06.068Z,42.88
2023-05-22T20:49:34.582Z,39.58
2023-05-22T20:52:02.640Z,37.88
2023-05-22T20:57:03.958Z,39.63
2023-05-22T20:59:30.829Z,39.13
2023-05-22T21:01:57.819Z,40.63
2023-05-22T21:04:26.293Z,40.47
2023-05-22T21:06:53.082Z,40.53
2023-05-22T21:09:19.830Z,43.55
2023-05-22T21:11:46.741Z,41.30
2023-05-22T21:14:14.059Z,43.83
2023-05-22T21:16:40.838Z,44.17
2023-05-22T21:19:07.854Z,45.60
2023-05-22T21:21:36.100Z,45.10
2023-05-22T21:24:03.255Z,44.50
2023-05-22T21:26:30.085Z,45.13
2023-05-22T21:28:57.085Z,46.72
2023-05-22T21:31:24.290Z,53.75
2023-05-22T21:33:51.107Z,51.13
2023-05-22T21:36:17.869Z,58.33
2023-05-22T21:38:45.390Z,57.83
2023-05-22T21:41:12.559Z,68.93
2023-05-22T21:43:39.377Z,71.38
2023-05-22T21:46:06.079Z,63.80
2023-05-22T21:48:32.754Z,64.68
2023-05-22T21:50:59.644Z,69.63
2023-05-22T21:53:26.446Z,73.03
2023-05-22T21:55:53.147Z,64.10
2023-05-22T21:58:19.841Z,63.33
2023-05-22T22:00:46.586Z,65.30
2023-05-22T22:03:13.489Z,62.50
2023-05-22T22:05:40.251Z,64.80
2023-05-22T22:08:06.898Z,67.82
2023-05-22T22:10:33.603Z,66.95
2023-05-22T22:13:01.727Z,66.65
2023-05-22T22:15:28.481Z,69.85
2023-05-22T22:17:59.611Z,72.97
2023-05-22T22:20:42.631Z,73.38
2023-05-22T22:23:10.794Z,71.47
2023-05-22T22:25:38.861Z,66.80
2023-05-22T22:28:05.893Z,80.55
2023-05-22T22:30:32.691Z,80.80
2023-05-22T22:32:59.612Z,76.05
2023-05-22T22:35:26.459Z,75.95
2023-05-22T22:37:53.216Z,87.43
2023-05-22T22:40:19.850Z,81.43
2023-05-22T22:42:46.495Z,90.57
2023-05-22T22:45:14.596Z,94.05
2023-05-22T22:47:41.339Z,107.55
2023-05-22T22:50:09.748Z,115.93
2023-05-22T22:52:38.193Z,115.63
2023-05-22T22:55:06.539Z,128.93
2023-05-22T22:57:33.652Z,138.00
2023-05-22T23:00:00.549Z,147.10
2023-05-22T23:02:27.232Z,161.82
2023-05-22T23:04:54.116Z,155.90
2023-05-22T23:07:23.997Z,184.27
2023-05-22T23:09:50.728Z,201.13
2023-05-22T23:12:17.525Z,182.45
2023-05-22T23:14:44.826Z,191.52
2023-05-22T23:17:11.693Z,177.15
2023-05-22T23:19:38.382Z,199.63
2023-05-22T23:22:05.852Z,202.40
2023-05-22T23:24:32.501Z,324.42
2023-05-22T23:26:59.264Z,188.40
2023-05-22T23:29:25.940Z,145.90
2023-05-22T23:31:52.863Z,135.10
2023-05-22T23:34:19.595Z,127.63
2023-05-22T23:36:46.215Z,127.68
2023-05-22T23:39:12.837Z,136.07
2023-05-22T23:41:39.525Z,127.00
2023-05-22T23:44:06.236Z,135.50
2023-05-22T23:46:32.888Z,113.47
2023-05-22T23:48:59.578Z,112.35
2023-05-22T23:51:26.265Z,116.18
2023-05-22T23:53:52.872Z,90.15
2023-05-22T23:56:19.892Z,79.60
2023-05-22T23:58:46.518Z,69.97
